Terminal Aerodrome Forecast
Issued by NWS

Home | Current Version | Previous Version | Text Only | Print | Product List | Glossary On
Versions: 1 2 3 4 5 6 7 8 9 10 11 12 13 14 15 16 17 18 19 20 21 22 23 24 25 26 27 28 29 30 31 32 33 34 35
000
FTUS41 KBOX 021415 AAA
TAFACK
TAF AMD
KACK 021415Z 0214/0312 04021G28KT 6SM -RA BR OVC015
     FM021600 04022KT 6SM BR BKN008
     FM021900 04021KT P6SM BKN015
     FM030000 03017KT P6SM BKN020=

USA.gov is the U.S. government's official web portal to all federal, state and local government web resources and services.